createdAt,value
2018-11-05T00:01:43.743Z,23.57
2018-11-05T00:04:25.489Z,22.90
2018-11-05T00:07:06.764Z,21.80
2018-11-05T00:09:48.054Z,24.83
2018-11-05T00:12:29.337Z,25.60
2018-11-05T00:15:10.801Z,26.00
2018-11-05T00:17:52.203Z,26.17
2018-11-05T00:20:33.693Z,26.93
2018-11-05T00:23:15.078Z,26.63
2018-11-05T00:25:56.536Z,27.47
2018-11-05T00:28:38.108Z,25.47
2018-11-05T00:31:19.684Z,28.63
2018-11-05T00:34:01.079Z,28.63
2018-11-05T00:36:42.806Z,27.40
2018-11-05T00:39:24.030Z,30.27
2018-11-05T00:42:05.994Z,32.23
2018-11-05T00:44:47.039Z,29.53
2018-11-05T00:47:28.389Z,32.50
2018-11-05T00:50:11.801Z,32.23
2018-11-05T00:52:53.318Z,31.80
2018-11-05T00:55:34.935Z,33.63
2018-11-05T00:58:16.514Z,29.60
2018-11-05T01:00:57.620Z,32.57
2018-11-05T01:03:39.492Z,30.70
2018-11-05T01:06:23.115Z,30.27
2018-11-05T01:09:05.860Z,28.77
2018-11-05T01:11:47.533Z,29.93
2018-11-05T01:14:29.410Z,27.63
2018-11-05T01:17:10.605Z,28.47
2018-11-05T01:19:52.108Z,29.10
2018-11-05T01:22:33.551Z,27.13
2018-11-05T01:25:15.349Z,29.63
2018-11-05T01:27:57.657Z,28.23
2018-11-05T01:30:38.757Z,26.67
2018-11-05T01:33:20.329Z,28.70
2018-11-05T01:36:01.960Z,29.07
2018-11-05T01:38:43.104Z,29.87
2018-11-05T01:41:24.610Z,28.33
2018-11-05T01:44:06.325Z,26.33
2018-11-05T01:46:47.525Z,26.23
2018-11-05T01:49:28.888Z,27.27
2018-11-05T01:52:10.700Z,27.23
2018-11-05T01:54:51.905Z,27.50
2018-11-05T01:57:33.538Z,28.43
2018-11-05T02:00:16.204Z,27.53
2018-11-05T02:02:57.309Z,26.60
2018-11-05T02:05:38.649Z,28.40
2018-11-05T02:08:20.169Z,27.07
2018-11-05T02:11:01.933Z,28.47
2018-11-05T02:13:43.172Z,30.37
2018-11-05T02:16:24.341Z,27.93
2018-11-05T02:19:06.139Z,29.27
2018-11-05T02:21:47.203Z,29.60
2018-11-05T02:24:28.659Z,28.93
2018-11-05T02:27:10.336Z,28.27
2018-11-05T02:29:51.470Z,27.90
2018-11-05T02:32:32.803Z,29.43
2018-11-05T02:35:15.507Z,27.27
2018-11-05T02:37:56.578Z,28.23
2018-11-05T02:40:38.061Z,29.57
2018-11-05T02:43:20.010Z,26.60
2018-11-05T02:46:01.161Z,27.30
2018-11-05T02:48:42.683Z,27.03
2018-11-05T02:51:24.568Z,29.13
2018-11-05T02:54:06.025Z,26.53
2018-11-05T02:56:47.793Z,25.40
2018-11-05T02:59:30.441Z,28.17
2018-11-05T03:02:11.641Z,27.00
2018-11-05T03:04:52.828Z,26.57
2018-11-05T03:07:34.598Z,27.40
2018-11-05T03:10:15.754Z,27.73
2018-11-05T03:12:56.901Z,30.30
2018-11-05T03:15:38.702Z,28.93
2018-11-05T03:18:19.942Z,27.00
2018-11-05T03:21:01.306Z,28.27
2018-11-05T03:23:42.583Z,27.07
2018-11-05T03:26:23.960Z,28.97
2018-11-05T03:29:05.486Z,29.50
2018-11-05T03:31:46.621Z,28.13
2018-11-05T03:34:28.123Z,26.07
2018-11-05T03:37:09.610Z,26.17
2018-11-05T03:39:51.241Z,28.17
2018-11-05T03:42:32.197Z,26.77
2018-11-05T03:45:15.017Z,27.00
2018-11-05T03:47:56.081Z,27.27
2018-11-05T03:50:37.700Z,25.60
2018-11-05T03:53:19.004Z,26.90
2018-11-05T03:56:00.398Z,26.63
2018-11-05T03:58:41.841Z,27.00
2018-11-05T04:01:23.252Z,28.73
2018-11-05T04:04:04.901Z,26.90
2018-11-05T04:06:46.402Z,26.43
2018-11-05T04:09:27.890Z,27.93
2018-11-05T04:12:09.657Z,28.43
2018-11-05T04:14:51.120Z,26.90
2018-11-05T04:17:32.512Z,30.03
2018-11-05T04:20:14.593Z,29.33
2018-11-05T04:22:56.446Z,31.17
2018-11-05T04:25:37.780Z,29.83
2018-11-05T04:28:19.246Z,30.87
2018-11-05T04:31:00.628Z,29.63
2018-11-05T04:33:42.102Z,28.70
2018-11-05T04:36:23.498Z,28.63
2018-11-05T04:39:10.654Z,27.17
2018-11-05T04:41:52.445Z,30.20
2018-11-05T04:44:34.033Z,28.37
2018-11-05T04:47:15.865Z,31.37
2018-11-05T04:49:56.952Z,32.53
2018-11-05T04:52:39.205Z,30.10
2018-11-05T04:55:21.484Z,27.50
2018-11-05T04:58:02.490Z,31.30
2018-11-05T05:00:43.959Z,29.27
2018-11-05T05:03:26.971Z,28.57
2018-11-05T05:06:07.889Z,28.67
2018-11-05T05:08:49.257Z,33.53
2018-11-05T05:11:30.869Z,30.07
2018-11-05T05:14:12.129Z,31.93
2018-11-05T05:16:53.637Z,30.83
2018-11-05T05:19:35.169Z,30.60
2018-11-05T05:22:16.707Z,31.77
2018-11-05T05:24:57.986Z,30.60
2018-11-05T05:27:39.646Z,31.17
2018-11-05T05:30:21.224Z,29.90
2018-11-05T05:33:02.307Z,31.40
2018-11-05T05:35:44.017Z,30.83
2018-11-05T05:38:25.815Z,30.27
2018-11-05T05:41:07.539Z,30.33
2018-11-05T05:43:48.885Z,31.87
2018-11-05T05:46:30.406Z,29.00
2018-11-05T05:49:11.696Z,30.47
2018-11-05T05:51:53.555Z,30.10
2018-11-05T05:54:35.333Z,31.20
2018-11-05T05:57:16.430Z,29.17
2018-11-05T05:59:58.075Z,28.53
2018-11-05T06:02:39.782Z,28.30
2018-11-05T06:05:21.091Z,29.67
2018-11-05T06:08:02.457Z,27.70
2018-11-05T06:10:43.867Z,29.67
2018-11-05T06:13:27.289Z,27.67
2018-11-05T06:16:08.830Z,27.03
2018-11-05T06:18:50.159Z,28.40
2018-11-05T06:21:31.436Z,27.60
2018-11-05T06:24:12.821Z,26.47
2018-11-05T06:26:54.395Z,27.20
2018-11-05T06:29:35.858Z,24.73
2018-11-05T06:32:17.320Z,26.43
2018-11-05T06:34:58.609Z,28.43
2018-11-05T06:37:40.509Z,27.27
2018-11-05T06:40:23.609Z,27.27
2018-11-05T06:43:05.402Z,28.90
2018-11-05T06:45:46.330Z,29.53
2018-11-05T06:48:28.236Z,28.23
2018-11-05T06:51:09.181Z,27.23
2018-11-05T06:53:50.562Z,26.93
2018-11-05T06:56:32.351Z,28.80
2018-11-05T06:59:13.357Z,29.33
2018-11-05T07:01:54.768Z,27.47
2018-11-05T07:04:36.923Z,26.03
2018-11-05T07:07:18.650Z,26.73
2018-11-05T07:10:00.149Z,28.20
2018-11-05T07:12:42.253Z,27.00
2018-11-05T07:15:24.471Z,26.27
2018-11-05T07:18:06.366Z,25.10
2018-11-05T07:20:48.257Z,24.20
2018-11-05T07:23:29.108Z,26.60
2018-11-05T07:26:10.586Z,24.67
2018-11-05T07:28:51.973Z,24.93
2018-11-05T07:31:33.252Z,24.83
2018-11-05T07:34:14.777Z,24.67
2018-11-05T07:36:57.036Z,25.37
2018-11-05T07:39:45.902Z,24.63
2018-11-05T07:42:27.441Z,23.77
2018-11-05T07:45:12.405Z,23.73
2018-11-05T07:47:53.669Z,25.97
2018-11-05T07:50:34.925Z,24.47
2018-11-05T07:53:16.518Z,24.03
2018-11-05T07:55:58.092Z,25.20
2018-11-05T07:58:39.251Z,25.63
2018-11-05T08:01:20.686Z,25.53
2018-11-05T08:04:02.044Z,23.97
2018-11-05T08:06:43.502Z,24.80
2018-11-05T08:09:25.432Z,25.23
2018-11-05T08:12:07.344Z,23.73
2018-11-05T08:14:48.841Z,25.47
2018-11-05T08:17:30.257Z,26.10
2018-11-05T08:20:11.959Z,23.00
2018-11-05T08:22:54.181Z,23.90
2018-11-05T08:25:35.797Z,22.07
2018-11-05T08:28:17.552Z,20.30
2018-11-05T08:30:58.637Z,22.90
2018-11-05T08:33:40.029Z,21.87
2018-11-05T08:36:21.926Z,21.37
2018-11-05T08:39:03.586Z,21.07
2018-11-05T08:41:45.664Z,20.77
2018-11-05T08:44:27.446Z,20.50
2018-11-05T08:47:08.533Z,19.60
2018-11-05T08:49:49.804Z,20.57
2018-11-05T08:52:31.350Z,21.43
2018-11-05T08:55:14.837Z,21.77
2018-11-05T08:57:56.432Z,21.93
2018-11-05T09:00:43.321Z,20.10
2018-11-05T09:03:25.133Z,19.83
2018-11-05T09:06:06.768Z,20.33
2018-11-05T09:08:48.148Z,19.20
2018-11-05T09:11:29.531Z,18.40
2018-11-05T09:14:10.990Z,19.80
2018-11-05T09:16:53.524Z,20.07
2018-11-05T09:19:34.608Z,19.80
2018-11-05T09:22:15.945Z,20.20
2018-11-05T09:24:57.218Z,19.83
2018-11-05T09:27:38.486Z,19.70
2018-11-05T09:30:21.486Z,20.43
2018-11-05T09:33:02.357Z,20.17
2018-11-05T09:35:44.260Z,18.70
2018-11-05T09:38:25.418Z,18.50
2018-11-05T09:41:08.110Z,18.53
2018-11-05T09:43:52.094Z,17.83
2018-11-05T09:46:33.787Z,18.10
2018-11-05T09:49:16.181Z,17.70
2018-11-05T09:51:58.229Z,16.67
2018-11-05T09:54:39.141Z,16.93
2018-11-05T09:57:20.605Z,15.17
2018-11-05T10:00:02.585Z,15.33
2018-11-05T10:02:49.252Z,15.93
2018-11-05T10:05:31.018Z,16.10
2018-11-05T10:08:12.845Z,15.57
2018-11-05T10:10:53.982Z,15.23
2018-11-05T10:13:35.517Z,15.27
2018-11-05T10:16:17.316Z,16.23
2018-11-05T10:18:58.530Z,15.57
2018-11-05T10:21:39.676Z,16.60
2018-11-05T10:24:21.525Z,14.83
2018-11-05T10:27:02.498Z,16.43
2018-11-05T10:29:43.872Z,15.53
2018-11-05T10:32:25.606Z,15.33
2018-11-05T10:35:07.746Z,15.00
2018-11-05T10:37:49.197Z,14.77
2018-11-05T10:40:31.055Z,14.97
2018-11-05T10:43:12.823Z,14.60
2018-11-05T10:45:54.275Z,14.70
2018-11-05T10:48:36.065Z,14.90
2018-11-05T10:51:17.902Z,15.00
2018-11-05T10:53:59.442Z,14.20
2018-11-05T10:56:41.870Z,14.70
2018-11-05T10:59:24.637Z,14.87
2018-11-05T11:02:11.705Z,14.10
2018-11-05T11:04:53.269Z,14.33
2018-11-05T11:07:34.912Z,15.40
2018-11-05T11:10:16.374Z,15.57
2018-11-05T11:12:57.948Z,14.17
2018-11-05T11:15:39.684Z,14.17
2018-11-05T11:18:22.530Z,14.27
2018-11-05T11:21:03.594Z,14.87
2018-11-05T11:23:45.397Z,13.93
2018-11-05T11:26:26.602Z,14.87
2018-11-05T11:29:08.123Z,14.50
2018-11-05T11:31:49.481Z,15.93
2018-11-05T11:34:30.903Z,15.20
2018-11-05T11:37:12.407Z,14.97
2018-11-05T11:39:54.058Z,15.87
2018-11-05T11:42:35.392Z,16.07
2018-11-05T11:45:17.601Z,15.53
2018-11-05T11:47:59.016Z,17.37
2018-11-05T11:50:40.268Z,16.30
2018-11-05T11:53:22.012Z,16.77
2018-11-05T11:56:03.390Z,17.30
2018-11-05T11:58:44.797Z,15.50
2018-11-05T12:01:26.297Z,15.43
2018-11-05T12:04:07.873Z,17.30
2018-11-05T12:06:49.401Z,16.40
2018-11-05T12:09:30.706Z,16.43
2018-11-05T12:12:12.572Z,16.27
2018-11-05T12:14:58.180Z,16.87
2018-11-05T12:17:39.805Z,16.10
2018-11-05T12:20:23.209Z,15.33
2018-11-05T12:23:05.183Z,15.70
2018-11-05T12:25:46.676Z,16.07
2018-11-05T12:28:28.377Z,16.07
2018-11-05T12:31:09.726Z,16.33
2018-11-05T12:33:51.126Z,15.13
2018-11-05T12:36:35.300Z,16.10
2018-11-05T12:39:17.102Z,16.23
2018-11-05T12:41:58.941Z,16.70
2018-11-05T12:44:40.464Z,15.60
2018-11-05T12:47:21.537Z,16.87
2018-11-05T12:50:03.477Z,16.87
2018-11-05T12:52:46.185Z,16.20
2018-11-05T12:55:28.240Z,16.73
2018-11-05T12:58:09.689Z,16.07
2018-11-05T13:00:50.859Z,16.47
2018-11-05T13:03:32.100Z,16.60
2018-11-05T13:06:13.555Z,17.03
2018-11-05T13:08:56.633Z,16.73
2018-11-05T13:11:38.358Z,17.33
2018-11-05T13:14:20.386Z,16.03
2018-11-05T13:17:02.522Z,17.13
2018-11-05T13:19:43.625Z,16.60
2018-11-05T13:22:25.366Z,17.60
2018-11-05T13:25:07.173Z,17.83
2018-11-05T13:27:49.131Z,16.03
2018-11-05T13:30:30.710Z,17.63
2018-11-05T13:33:13.707Z,19.17
2018-11-05T13:35:54.738Z,18.43
2018-11-05T13:38:36.336Z,18.57
2018-11-05T13:41:18.213Z,17.10
2018-11-05T13:44:00.021Z,17.80
2018-11-05T13:46:41.767Z,17.60
2018-11-05T13:49:23.150Z,18.53
2018-11-05T13:52:04.247Z,18.63
2018-11-05T13:54:45.679Z,17.80
2018-11-05T13:57:27.162Z,17.37
2018-11-05T14:00:09.985Z,18.43
2018-11-05T14:02:51.646Z,17.90
2018-11-05T14:05:33.268Z,16.83
2018-11-05T14:08:14.486Z,18.03
2018-11-05T14:10:55.998Z,18.33
2018-11-05T14:13:37.636Z,19.10
2018-11-05T14:16:18.795Z,18.33
2018-11-05T14:19:00.388Z,17.83
2018-11-05T14:21:41.784Z,19.50
2018-11-05T14:24:23.082Z,18.53
2018-11-05T14:27:04.460Z,19.07
2018-11-05T14:29:46.450Z,20.37
2018-11-05T14:32:27.397Z,19.13
2018-11-05T14:35:09.133Z,20.70
2018-11-05T14:37:50.255Z,21.20
2018-11-05T14:40:31.456Z,20.73
2018-11-05T14:43:13.145Z,21.50
2018-11-05T14:45:57.235Z,22.30
2018-11-05T14:48:38.979Z,21.30
2018-11-05T14:51:20.857Z,22.87
2018-11-05T14:54:01.846Z,21.90
2018-11-05T14:56:43.319Z,22.33
2018-11-05T15:01:45.337Z,23.60
2018-11-05T15:04:27.341Z,22.90
2018-11-05T15:07:08.767Z,21.47
2018-11-05T15:09:50.198Z,22.60
2018-11-05T15:12:32.641Z,24.07
2018-11-05T15:15:14.854Z,24.00
2018-11-05T15:17:57.444Z,24.70
2018-11-05T15:20:41.330Z,26.53
2018-11-05T15:23:23.424Z,24.93
2018-11-05T15:26:05.602Z,25.63
2018-11-05T15:28:48.714Z,27.87
2018-11-05T15:31:30.785Z,26.47
2018-11-05T15:34:14.811Z,27.27
2018-11-05T15:36:56.677Z,26.40
2018-11-05T15:39:44.305Z,28.50
2018-11-05T15:42:27.430Z,29.23
2018-11-05T15:45:11.237Z,29.17
2018-11-05T15:47:53.889Z,30.00
2018-11-05T15:50:37.110Z,28.37
2018-11-05T15:53:21.313Z,28.30
2018-11-05T15:56:04.836Z,28.63
2018-11-05T15:58:47.401Z,28.27
2018-11-05T16:01:29.505Z,28.57
2018-11-05T16:04:12.033Z,31.03
2018-11-05T16:06:53.824Z,32.33
2018-11-05T16:09:37.458Z,30.20
2018-11-05T16:12:19.931Z,30.03
2018-11-05T16:15:02.698Z,31.20
2018-11-05T16:17:45.184Z,30.07
2018-11-05T16:20:27.108Z,28.70
2018-11-05T16:23:09.865Z,29.80
2018-11-05T16:25:52.587Z,30.93
2018-11-05T16:28:35.095Z,30.83
2018-11-05T16:31:16.952Z,30.60
2018-11-05T16:33:58.905Z,30.60
2018-11-05T16:36:43.969Z,30.50
2018-11-05T16:39:27.114Z,32.40
2018-11-05T16:42:11.497Z,31.03
2018-11-05T16:44:53.970Z,31.53
2018-11-05T16:47:36.763Z,31.13
2018-11-05T16:50:22.033Z,32.13
2018-11-05T16:53:05.627Z,30.73
2018-11-05T16:55:47.853Z,31.20
2018-11-05T16:58:30.599Z,33.80
2018-11-05T17:01:13.071Z,30.67
2018-11-05T17:03:55.285Z,32.50
2018-11-05T17:06:37.217Z,33.10
2018-11-05T17:09:19.215Z,36.50
2018-11-05T17:12:01.813Z,33.67
2018-11-05T17:14:44.120Z,36.13
2018-11-05T17:17:26.348Z,36.67
2018-11-05T17:20:11.658Z,35.77
2018-11-05T17:22:53.749Z,34.73
2018-11-05T17:25:36.016Z,37.33
2018-11-05T17:28:18.912Z,41.10
2018-11-05T17:31:00.719Z,40.00
2018-11-05T17:33:42.267Z,37.90
2018-11-05T17:36:25.390Z,41.33
2018-11-05T17:39:10.637Z,40.87
2018-11-05T17:41:52.490Z,43.77
2018-11-05T17:44:35.422Z,39.37
2018-11-05T17:47:17.285Z,42.37
2018-11-05T17:49:59.426Z,41.27
2018-11-05T17:52:41.387Z,42.40
2018-11-05T17:55:23.973Z,45.07
2018-11-05T17:58:06.637Z,47.27
2018-11-05T18:00:49.249Z,44.73
2018-11-05T18:03:30.729Z,42.97
2018-11-05T18:06:12.574Z,50.93
2018-11-05T18:08:55.332Z,55.50
2018-11-05T18:11:37.604Z,48.43
2018-11-05T18:14:19.968Z,48.27
2018-11-05T18:17:03.481Z,45.93
2018-11-05T18:19:46.093Z,46.73
2018-11-05T18:22:28.417Z,51.27
2018-11-05T18:25:15.843Z,48.60
2018-11-05T18:27:58.549Z,47.83
2018-11-05T18:30:40.621Z,50.53
2018-11-05T18:33:22.324Z,51.07
2018-11-05T18:36:04.718Z,51.93
2018-11-05T18:38:46.821Z,50.00
2018-11-05T18:41:28.346Z,50.47
2018-11-05T18:44:10.345Z,49.00
2018-11-05T18:46:52.427Z,51.53
2018-11-05T18:49:35.563Z,44.87
2018-11-05T18:52:17.246Z,49.60
2018-11-05T18:54:58.426Z,46.90
2018-11-05T18:57:40.229Z,45.07
2018-11-05T19:00:25.030Z,49.27
2018-11-05T19:03:11.937Z,50.60
2018-11-05T19:05:57.489Z,58.20
2018-11-05T19:08:40.514Z,63.53
2018-11-05T19:11:22.585Z,59.53
2018-11-05T19:14:05.052Z,55.80
2018-11-05T19:16:47.614Z,53.07
2018-11-05T19:19:30.625Z,68.57
2018-11-05T19:22:12.288Z,56.40
2018-11-05T19:24:53.825Z,51.57
2018-11-05T19:27:36.126Z,56.17
2018-11-05T19:30:20.351Z,59.33
2018-11-05T19:33:02.354Z,57.47
2018-11-05T19:35:44.769Z,59.87
2018-11-05T19:38:27.582Z,62.07
2018-11-05T19:41:09.782Z,62.50
2018-11-05T19:43:51.883Z,61.03
2018-11-05T19:46:35.952Z,79.73
2018-11-05T19:49:18.198Z,77.17
2018-11-05T19:52:00.335Z,69.17
2018-11-05T19:54:42.287Z,65.93
2018-11-05T19:57:24.423Z,67.30
2018-11-05T20:00:18.031Z,68.33
2018-11-05T20:03:02.260Z,68.20
2018-11-05T20:05:44.292Z,66.67
2018-11-05T20:08:26.247Z,65.33
2018-11-05T20:11:08.452Z,61.53
2018-11-05T20:13:50.459Z,61.83
2018-11-05T20:16:32.881Z,57.17
2018-11-05T20:19:15.731Z,57.67
2018-11-05T20:21:58.002Z,58.30
2018-11-05T20:24:40.069Z,58.00
2018-11-05T20:27:21.792Z,59.37
2018-11-05T20:30:04.469Z,57.70
2018-11-05T20:32:48.115Z,54.83
2018-11-05T20:35:30.124Z,54.03
2018-11-05T20:38:14.712Z,50.63
2018-11-05T20:40:56.773Z,51.60
2018-11-05T20:43:38.145Z,45.57
2018-11-05T20:46:20.054Z,46.10
2018-11-05T20:49:02.383Z,45.83
2018-11-05T20:51:44.852Z,43.27
2018-11-05T20:54:27.717Z,40.37
2018-11-05T20:57:09.468Z,38.97
2018-11-05T20:59:51.354Z,46.23
2018-11-05T21:02:34.319Z,45.63
2018-11-05T21:05:15.914Z,42.93
2018-11-05T21:07:57.405Z,40.43
2018-11-05T21:10:41.523Z,42.93
2018-11-05T21:13:23.642Z,46.13
2018-11-05T21:16:05.654Z,45.77
2018-11-05T21:18:48.131Z,43.27
2018-11-05T21:21:31.117Z,41.70
2018-11-05T21:24:13.141Z,40.30
2018-11-05T21:26:55.717Z,133.57
2018-11-05T21:29:37.557Z,60.37
2018-11-05T21:32:19.773Z,64.47
2018-11-05T21:35:02.885Z,57.23
2018-11-05T21:37:44.767Z,58.03
2018-11-05T21:40:26.855Z,59.07
2018-11-05T21:43:09.163Z,48.37
2018-11-05T21:45:50.894Z,44.97
2018-11-05T21:48:47.553Z,38.87
2018-11-05T21:51:32.481Z,41.43
2018-11-05T21:54:14.282Z,46.90
2018-11-05T21:56:56.573Z,44.97
2018-11-05T21:59:38.562Z,44.10
2018-11-05T22:02:21.005Z,41.33
2018-11-05T22:05:03.023Z,40.63
2018-11-05T22:07:46.312Z,38.30
2018-11-05T22:10:28.414Z,36.50
2018-11-05T22:13:10.525Z,39.90
2018-11-05T22:16:18.725Z,40.90
2018-11-05T22:19:00.172Z,35.80
2018-11-05T22:21:41.902Z,38.87
2018-11-05T22:24:24.515Z,37.83
2018-11-05T22:27:07.230Z,38.57
2018-11-05T22:29:49.127Z,38.93
2018-11-05T22:32:31.453Z,39.40
2018-11-05T22:35:13.633Z,36.07
2018-11-05T22:37:55.986Z,35.50
2018-11-05T22:40:38.529Z,35.97
2018-11-05T22:43:20.720Z,42.33
2018-11-05T22:46:02.875Z,39.73
2018-11-05T22:48:45.503Z,36.83
2018-11-05T22:51:27.688Z,34.70
2018-11-05T22:54:09.942Z,35.20
2018-11-05T22:56:52.793Z,35.50
2018-11-05T22:59:34.802Z,36.43
2018-11-05T23:02:17.933Z,40.87
2018-11-05T23:05:01.129Z,39.93
2018-11-05T23:07:43.201Z,39.07
2018-11-05T23:10:25.120Z,42.80
2018-11-05T23:13:07.828Z,40.40
2018-11-05T23:15:50.380Z,38.40
2018-11-05T23:18:32.350Z,37.37
2018-11-05T23:21:15.053Z,40.23
2018-11-05T23:23:57.293Z,40.60
2018-11-05T23:26:39.889Z,42.63
2018-11-05T23:29:22.696Z,38.60
2018-11-05T23:32:04.542Z,34.47
2018-11-05T23:34:46.097Z,37.77
2018-11-05T23:37:28.612Z,35.30
2018-11-05T23:43:49.055Z,34.17
2018-11-05T23:46:31.613Z,34.67
2018-11-05T23:49:14.283Z,35.67
2018-11-05T23:51:59.289Z,33.23
2018-11-05T23:54:43.152Z,31.80
2018-11-05T23:57:26.013Z,32.00
